KGRR/GRR METAR and TAF weather

Enter ICAO airport designator
Station Type Date Time Source
KGRR METAR 2022/06/28 08:53 UTC NOAA

KGRR 280853Z AUTO 16005KT 10SM CLR 09/07 A3022 RMK AO2 SLP234 T00890067 55001 $


Station Type Date Time Source
KGRR Decoded METAR 2022/06/28 08:53 UTC NOAA

GERALD R. FORD INTERNATIONAL, MI, United States (KGRR) 42-53N 085-31W 239M
Jun 28, 2022 - 04:53 AM EDT / 2022.06.28 0853 UTC
Wind: from the SSE (160 degrees) at 6 MPH (5 KT):0
Visibility: 10 mile(s):0
Sky conditions: clear
Temperature: 48.0 F (8.9 C)
Dew Point: 44.1 F (6.7 C)
Relative Humidity: 86%
Pressure (altimeter): 30.22 in. Hg (1023 hPa)
Pressure tendency: 0.00 inches (0.1 hPa) lower than three hours ago
ob: KGRR 280853Z AUTO 16005KT 10SM CLR 09/07 A3022 RMK AO2 SLP234 T00890067 55001
cycle: 9

Station Type Date Time Source
KGRR TAF 2022/06/28 06:42 UTC NOAA

TAF KGRR 280540Z 2806/2906 VRB03KT P6SM SKC
FM281600 24010KT P6SM SKC
FM290400 25007KT P6SM VCSH BKN100

Example: see airport list